Time;durP1;ratioP1;P1;durP2;ratioP2;P2;SDS_P1;SDS_P2;PMS_P1;PMS_P2;Temp;Humidity;BMP_temperature;BMP_pressure;BME280_temperature;BME280_humidity;BME280_pressure;Samples;Min_cycle;Max_cycle;Signal;HPM_P1;HPM_P2
2023/08/29 00:00:24;;;;;;;2.88;2.55;;;16.70;99.90;;;;;;2493925;23;20003;-71
2023/08/29 00:01:25;;;;;;;4.05;2.90;;;16.70;99.90;;;;;;2495270;23;20074;-71
2023/08/29 00:02:31;;;;;;;2.72;2.53;;;16.70;99.90;;;;;;2494457;23;20078;-71
2023/08/29 00:03:33;;;;;;;5.10;3.42;;;16.70;99.90;;;;;;2495375;23;20003;-71
2023/08/29 00:04:34;;;;;;;4.53;3.13;;;16.70;99.90;;;;;;2495666;23;20014;-71
2023/08/29 00:05:34;;;;;;;3.58;3.22;;;16.60;99.90;;;;;;2495037;23;20011;-71
2023/08/29 00:06:35;;;;;;;3.83;2.90;;;16.60;99.90;;;;;;2495431;23;21200;-71
2023/08/29 00:07:36;;;;;;;3.78;3.20;;;16.60;99.90;;;;;;2495662;23;20010;-71
2023/08/29 00:08:37;;;;;;;3.30;3.05;;;16.60;99.90;;;;;;2495141;23;20003;-71
2023/08/29 00:09:37;;;;;;;3.35;3.13;;;16.60;99.90;;;;;;2482630;23;20018;-71
2023/08/29 00:10:38;;;;;;;4.32;3.10;;;16.60;99.90;;;;;;2483274;23;20071;-71
2023/08/29 00:11:38;;;;;;;3.53;3.22;;;16.60;99.90;;;;;;2495026;23;20068;-71
2023/08/29 00:12:42;;;;;;;5.28;3.10;;;16.60;99.90;;;;;;2494889;23;20063;-71
2023/08/29 00:13:43;;;;;;;4.45;3.42;;;16.60;99.90;;;;;;2494570;23;20083;-71
2023/08/29 00:14:44;;;;;;;3.78;3.47;;;16.50;99.90;;;;;;2495522;23;20011;-71
2023/08/29 00:15:44;;;;;;;6.53;3.20;;;16.50;99.90;;;;;;2495557;23;20478;-71
2023/08/29 00:16:45;;;;;;;4.13;2.97;;;16.50;99.90;;;;;;2494463;23;20007;-71
2023/08/29 00:17:46;;;;;;;3.67;3.38;;;16.50;99.90;;;;;;2495484;23;20428;-71
2023/08/29 00:18:46;;;;;;;3.70;3.22;;;16.50;99.90;;;;;;2495668;23;20439;-71
2023/08/29 00:19:47;;;;;;;6.80;3.17;;;16.40;99.90;;;;;;2495090;23;20007;-71
2023/08/29 00:20:48;;;;;;;3.45;3.15;;;16.50;99.90;;;;;;2495107;23;20023;-71
2023/08/29 00:21:49;;;;;;;6.35;3.70;;;16.50;99.90;;;;;;2495497;23;20443;-71
2023/08/29 00:22:49;;;;;;;4.55;3.10;;;16.40;99.90;;;;;;2493752;23;20343;-71
2023/08/29 00:23:50;;;;;;;4.95;3.67;;;16.40;99.90;;;;;;2495532;23;20003;-71
2023/08/29 00:24:52;;;;;;;6.00;4.18;;;16.40;99.90;;;;;;2482698;23;20003;-71
2023/08/29 00:25:52;;;;;;;3.60;3.30;;;16.40;99.90;;;;;;2483223;23;20071;-71
2023/08/29 00:26:53;;;;;;;6.32;4.00;;;16.40;99.90;;;;;;2482790;23;20040;-71
2023/08/29 00:27:53;;;;;;;5.28;3.83;;;16.40;99.90;;;;;;2482769;23;20668;-71
2023/08/29 00:28:54;;;;;;;4.03;3.72;;;16.30;99.90;;;;;;2494908;23;20003;-71
2023/08/29 00:29:55;;;;;;;5.45;3.70;;;16.30;99.90;;;;;;2494573;23;20047;-71
2023/08/29 00:30:55;;;;;;;3.40;3.20;;;16.30;99.90;;;;;;2495093;23;20320;-71
2023/08/29 00:31:56;;;;;;;3.63;3.00;;;16.30;99.90;;;;;;2495343;23;20006;-71
2023/08/29 00:32:56;;;;;;;5.10;3.72;;;16.30;99.90;;;;;;2494132;23;20007;-71
2023/08/29 00:33:57;;;;;;;3.63;3.38;;;16.30;99.90;;;;;;2493472;23;20014;-71
2023/08/29 00:34:57;;;;;;;4.05;3.33;;;16.30;99.90;;;;;;2495412;23;20082;-71
2023/08/29 00:35:58;;;;;;;3.35;2.92;;;16.30;99.90;;;;;;2495290;23;20401;-71
2023/08/29 00:36:58;;;;;;;5.10;4.05;;;16.20;99.90;;;;;;2494871;23;20023;-71
2023/08/29 00:37:59;;;;;;;6.45;4.50;;;16.30;99.90;;;;;;2495439;23;19999;-71
2023/08/29 00:39:00;;;;;;;4.35;3.45;;;16.20;99.90;;;;;;2495120;23;19996;-71
2023/08/29 00:40:00;;;;;;;4.95;3.88;;;16.20;99.90;;;;;;2495600;23;20054;-71
2023/08/29 00:41:01;;;;;;;6.57;3.30;;;16.20;99.90;;;;;;2495375;23;20006;-71
2023/08/29 00:42:01;;;;;;;4.15;3.75;;;16.20;99.90;;;;;;2494892;23;20006;-71
2023/08/29 00:43:02;;;;;;;6.68;4.32;;;16.20;99.90;;;;;;2494828;23;20070;-71
2023/08/29 00:44:03;;;;;;;3.95;3.50;;;16.20;99.90;;;;;;2495341;23;20006;-71
2023/08/29 00:45:04;;;;;;;5.63;3.92;;;16.20;99.90;;;;;;2493951;23;20003;-71
2023/08/29 00:46:08;;;;;;;5.47;3.50;;;16.20;99.90;;;;;;2495519;23;20008;-71
2023/08/29 00:47:09;;;;;;;3.08;2.85;;;16.10;99.90;;;;;;2495211;23;20003;-71
2023/08/29 00:48:12;;;;;;;6.18;4.43;;;16.10;99.90;;;;;;2495553;23;20424;-71
2023/08/29 00:49:16;;;;;;;3.38;3.17;;;16.10;99.90;;;;;;2495554;23;20377;-71
2023/08/29 00:50:17;;;;;;;3.63;3.40;;;16.10;99.90;;;;;;2494433;23;20046;-71
2023/08/29 00:51:18;;;;;;;4.10;3.70;;;16.10;99.90;;;;;;2495128;23;20007;-71
2023/08/29 00:52:19;;;;;;;4.18;3.85;;;16.10;99.90;;;;;;2494479;23;20090;-71
2023/08/29 00:53:19;;;;;;;8.13;4.40;;;16.10;99.90;;;;;;2494752;23;20015;-71
2023/08/29 00:54:21;;;;;;;4.53;4.13;;;16.10;99.90;;;;;;2495274;23;20008;-71
2023/08/29 00:55:22;;;;;;;4.68;4.28;;;16.00;99.90;;;;;;2494844;23;20349;-71
2023/08/29 00:56:23;;;;;;;5.20;3.83;;;16.00;99.90;;;;;;2495386;23;20030;-71
2023/08/29 00:57:24;;;;;;;4.32;4.00;;;16.00;99.90;;;;;;2495557;23;20023;-71
2023/08/29 00:58:24;;;;;;;4.97;3.70;;;16.00;99.90;;;;;;2494894;23;20818;-71
2023/08/29 00:59:25;;;;;;;3.97;3.65;;;16.00;99.90;;;;;;2495823;23;20023;-71
2023/08/29 01:00:27;;;;;;;5.25;4.63;;;16.00;99.90;;;;;;2494336;23;20010;-71
2023/08/29 01:01:28;;;;;;;4.75;3.85;;;16.00;99.90;;;;;;2495257;23;20324;-71
2023/08/29 01:02:29;;;;;;;6.93;4.25;;;15.90;99.90;;;;;;2494692;23;20010;-71
2023/08/29 01:03:30;;;;;;;4.85;3.30;;;15.90;99.90;;;;;;2495165;23;20030;-71
2023/08/29 01:04:31;;;;;;;4.35;3.95;;;15.90;99.90;;;;;;2495652;23;20008;-71
2023/08/29 01:05:31;;;;;;;4.55;4.25;;;15.90;99.90;;;;;;2495257;23;20062;-71
2023/08/29 01:06:33;;;;;;;5.97;3.92;;;15.90;99.90;;;;;;2495173;23;20067;-71
2023/08/29 01:07:33;;;;;;;3.90;3.60;;;15.90;99.90;;;;;;2495132;23;20007;-71
2023/08/29 01:08:34;;;;;;;4.43;4.03;;;15.90;99.90;;;;;;2495261;23;20408;-71
2023/08/29 01:09:35;;;;;;;4.78;4.30;;;15.90;99.90;;;;;;2495352;23;20385;-71
2023/08/29 01:11:00;;;;;;;4.63;3.83;;;15.90;99.90;;;;;;2495323;23;20011;-71
2023/08/29 01:12:14;;;;;;;4.22;3.15;;;15.90;99.90;;;;;;2493323;23;20031;-71
2023/08/29 01:13:30;;;;;;;5.65;3.80;;;15.80;99.90;;;;;;2495189;23;20491;-71
2023/08/29 01:14:55;;;;;;;4.45;3.83;;;15.80;99.90;;;;;;2494047;23;20363;-71
2023/08/29 01:16:00;;;;;;;5.68;4.50;;;15.80;99.90;;;;;;2494967;23;20088;-71
2023/08/29 01:17:18;;;;;;;4.47;4.10;;;15.70;99.90;;;;;;2495328;23;20277;-71
2023/08/29 01:18:21;;;;;;;5.18;4.60;;;15.80;99.90;;;;;;2495238;23;20013;-71
2023/08/29 01:19:23;;;;;;;4.82;4.43;;;15.70;99.90;;;;;;2494262;23;20008;-71
2023/08/29 01:20:27;;;;;;;4.28;3.88;;;15.70;99.90;;;;;;2494343;23;20854;-71
2023/08/29 01:21:45;;;;;;;5.15;4.65;;;15.70;99.90;;;;;;2494939;23;20010;-71
2023/08/29 01:23:07;;;;;;;4.43;4.03;;;15.70;99.90;;;;;;2494176;23;20344;-71
2023/08/29 01:24:21;;;;;;;4.88;3.45;;;15.70;99.90;;;;;;2494389;23;20014;-71
2023/08/29 01:25:34;;;;;;;5.55;4.28;;;15.60;99.90;;;;;;2495729;23;20008;-71
2023/08/29 01:26:36;;;;;;;4.20;3.90;;;15.70;99.90;;;;;;2494251;23;20014;-71
2023/08/29 01:27:37;;;;;;;6.13;3.75;;;15.60;99.90;;;;;;2495175;23;20004;-71
2023/08/29 01:28:40;;;;;;;5.20;4.55;;;15.60;99.90;;;;;;2495109;23;20087;-71
2023/08/29 01:29:42;;;;;;;5.03;4.25;;;15.60;99.90;;;;;;2495070;23;20556;-71
2023/08/29 01:30:43;;;;;;;5.13;4.68;;;15.60;99.90;;;;;;2494115;23;20007;-71
2023/08/29 01:31:45;;;;;;;4.80;4.20;;;15.60;99.90;;;;;;2495062;23;20011;-71
2023/08/29 01:32:46;;;;;;;8.27;4.15;;;15.60;99.90;;;;;;2493518;23;20015;-71
2023/08/29 01:33:47;;;;;;;5.00;4.38;;;15.60;99.90;;;;;;2494537;23;20011;-72
2023/08/29 01:34:50;;;;;;;4.45;4.05;;;15.60;99.90;;;;;;2495253;23;20003;-72
2023/08/29 01:35:51;;;;;;;4.50;4.10;;;15.60;99.90;;;;;;2494807;23;20004;-72
2023/08/29 01:36:52;;;;;;;4.72;4.35;;;15.60;99.90;;;;;;2495390;23;20014;-72
2023/08/29 01:37:52;;;;;;;5.00;4.60;;;15.60;99.90;;;;;;2495056;23;20050;-72
2023/08/29 01:38:53;;;;;;;5.25;4.65;;;15.60;99.90;;;;;;2495818;23;20003;-71
2023/08/29 01:39:53;;;;;;;5.15;4.65;;;15.50;99.90;;;;;;2495292;23;20376;-71
2023/08/29 01:40:54;;;;;;;5.57;4.40;;;15.50;99.90;;;;;;2495398;23;20007;-71
2023/08/29 01:41:54;;;;;;;5.70;4.40;;;15.50;99.90;;;;;;2494797;23;20003;-71
2023/08/29 01:42:55;;;;;;;5.13;4.60;;;15.50;99.90;;;;;;2494480;23;19995;-71
2023/08/29 01:43:55;;;;;;;5.20;4.72;;;15.50;99.90;;;;;;2494798;23;20383;-72
2023/08/29 01:44:56;;;;;;;5.28;4.80;;;15.50;99.90;;;;;;2495601;23;20003;-71
2023/08/29 01:45:57;;;;;;;4.72;4.32;;;15.50;99.90;;;;;;2495090;23;19999;-71
2023/08/29 01:46:57;;;;;;;5.15;4.65;;;15.50;99.90;;;;;;2495717;23;20038;-71
2023/08/29 01:47:58;;;;;;;5.07;4.35;;;15.50;99.90;;;;;;2495243;23;20103;-71
2023/08/29 01:49:01;;;;;;;8.98;5.28;;;15.50;99.90;;;;;;2496442;23;20426;-71
2023/08/29 01:50:04;;;;;;;7.47;4.47;;;15.50;99.90;;;;;;2495688;23;19999;-71
2023/08/29 01:51:05;;;;;;;5.28;3.85;;;15.50;99.90;;;;;;2495730;23;20447;-71
2023/08/29 01:52:06;;;;;;;6.80;4.00;;;15.50;99.90;;;;;;2495537;23;19999;-71
2023/08/29 01:53:07;;;;;;;5.45;4.10;;;15.50;99.90;;;;;;2494854;23;20008;-71
2023/08/29 01:54:08;;;;;;;5.47;4.38;;;15.40;99.90;;;;;;2496015;23;20012;-71
2023/08/29 01:55:09;;;;;;;6.15;4.47;;;15.50;99.90;;;;;;2495681;23;20003;-71
2023/08/29 01:56:12;;;;;;;5.32;3.95;;;15.40;99.90;;;;;;2496330;23;20019;-71
2023/08/29 01:57:15;;;;;;;5.03;4.60;;;15.40;99.90;;;;;;2496071;23;19999;-71
2023/08/29 01:58:16;;;;;;;4.82;4.30;;;15.40;99.90;;;;;;2495333;23;20086;-71
2023/08/29 01:59:17;;;;;;;4.75;4.35;;;15.40;99.90;;;;;;2496011;23;20031;-71
2023/08/29 02:00:19;;;;;;;4.47;3.58;;;15.40;99.90;;;;;;2494275;23;20060;-71
2023/08/29 02:01:20;;;;;;;4.35;4.05;;;15.40;99.90;;;;;;2495026;23;20003;-71
2023/08/29 02:02:21;;;;;;;5.20;4.90;;;15.40;99.90;;;;;;2495530;23;20086;-71
2023/08/29 02:03:23;;;;;;;3.92;3.53;;;15.40;99.90;;;;;;2495203;23;20018;-71
2023/08/29 02:04:23;;;;;;;5.70;4.38;;;15.40;99.90;;;;;;2495879;23;20007;-71
2023/08/29 02:05:24;;;;;;;6.50;4.95;;;15.40;99.90;;;;;;2495388;23;20022;-71
2023/08/29 02:06:25;;;;;;;4.63;4.18;;;15.40;99.90;;;;;;2495605;23;20008;-71
2023/08/29 02:07:25;;;;;;;5.82;4.93;;;15.40;99.90;;;;;;2495864;23;20018;-71
2023/08/29 02:08:26;;;;;;;4.63;4.25;;;15.40;99.90;;;;;;2494175;23;20032;-71
2023/08/29 02:09:26;;;;;;;5.70;5.20;;;15.40;99.90;;;;;;2495018;23;20022;-71
2023/08/29 02:10:29;;;;;;;5.50;5.00;;;15.30;99.90;;;;;;2495688;23;20014;-71
2023/08/29 02:11:29;;;;;;;6.13;5.57;;;15.40;99.90;;;;;;2495251;23;20082;-71
2023/08/29 02:12:30;;;;;;;5.50;5.00;;;15.30;99.90;;;;;;2495630;23;20050;-71
2023/08/29 02:13:31;;;;;;;4.78;4.47;;;15.30;99.90;;;;;;2495309;23;20007;-71
2023/08/29 02:14:32;;;;;;;5.93;5.38;;;15.30;99.90;;;;;;2496196;23;20296;-71
2023/08/29 02:15:32;;;;;;;5.47;4.97;;;15.30;99.90;;;;;;2495113;23;20000;-71
2023/08/29 02:16:33;;;;;;;5.15;4.72;;;15.30;99.90;;;;;;2495388;23;20104;-71
2023/08/29 02:17:33;;;;;;;5.43;4.90;;;15.30;99.90;;;;;;2495501;23;20011;-71
2023/08/29 02:18:34;;;;;;;4.78;4.38;;;15.30;99.90;;;;;;2483798;23;20008;-71
2023/08/29 02:19:35;;;;;;;5.85;5.35;;;15.30;99.90;;;;;;2483168;23;20027;-71
2023/08/29 02:20:36;;;;;;;5.03;4.43;;;15.30;99.90;;;;;;2495485;23;20010;-71
2023/08/29 02:21:37;;;;;;;4.40;4.10;;;15.30;99.90;;;;;;2494688;23;20159;-71
2023/08/29 02:22:37;;;;;;;4.78;4.38;;;15.30;99.90;;;;;;2495225;23;20040;-71
2023/08/29 02:23:38;;;;;;;4.60;4.20;;;15.30;99.90;;;;;;2495239;23;20059;-71
2023/08/29 02:24:38;;;;;;;5.07;4.57;;;15.30;99.90;;;;;;2496283;23;20007;-71
2023/08/29 02:25:39;;;;;;;5.25;4.85;;;15.20;99.90;;;;;;2495058;23;20007;-71
2023/08/29 02:26:39;;;;;;;5.20;4.80;;;15.30;99.90;;;;;;2495810;23;20018;-71
2023/08/29 02:27:40;;;;;;;7.35;5.70;;;15.20;99.90;;;;;;2495729;23;20015;-71
2023/08/29 02:28:40;;;;;;;6.88;5.30;;;15.30;99.90;;;;;;2495677;23;20014;-71
2023/08/29 02:29:41;;;;;;;5.57;5.10;;;15.20;99.90;;;;;;2496092;23;20004;-71
2023/08/29 02:30:42;;;;;;;5.40;5.00;;;15.20;99.90;;;;;;2495123;23;20011;-71
2023/08/29 02:31:43;;;;;;;5.30;4.88;;;15.20;99.90;;;;;;2482237;23;20190;-71
2023/08/29 02:32:44;;;;;;;7.00;4.72;;;15.20;99.90;;;;;;2482668;23;20064;-71
2023/08/29 02:33:45;;;;;;;5.93;5.05;;;15.20;99.90;;;;;;2495708;23;20395;-71
2023/08/29 02:34:45;;;;;;;4.53;4.13;;;15.20;99.90;;;;;;2495949;23;20034;-71
2023/08/29 02:35:46;;;;;;;5.68;5.00;;;15.20;99.90;;;;;;2495340;23;20007;-71
2023/08/29 02:36:46;;;;;;;4.95;4.32;;;15.20;99.90;;;;;;2495798;23;20003;-71
2023/08/29 02:37:49;;;;;;;5.00;4.45;;;15.20;99.90;;;;;;2495395;23;20015;-71
2023/08/29 02:38:50;;;;;;;8.20;4.63;;;15.20;99.90;;;;;;2495529;23;20007;-71
2023/08/29 02:39:51;;;;;;;5.22;4.80;;;15.20;99.90;;;;;;2495940;23;20443;-71
2023/08/29 02:40:51;;;;;;;6.65;5.35;;;15.20;99.90;;;;;;2495873;23;20336;-71
2023/08/29 02:41:52;;;;;;;5.43;4.80;;;15.20;99.90;;;;;;2495700;23;20282;-71
2023/08/29 02:42:52;;;;;;;7.38;4.72;;;15.20;99.90;;;;;;2495276;23;20007;-71
2023/08/29 02:43:54;;;;;;;5.63;5.13;;;15.20;99.90;;;;;;2494873;23;20049;-71
2023/08/29 02:44:54;;;;;;;5.10;4.78;;;15.20;99.90;;;;;;2495441;23;20010;-71
2023/08/29 02:45:55;;;;;;;5.53;5.03;;;15.20;99.90;;;;;;2494725;23;20031;-71
2023/08/29 02:46:56;;;;;;;5.60;5.10;;;15.20;99.90;;;;;;2495383;23;20000;-71
2023/08/29 02:47:56;;;;;;;6.53;5.65;;;15.20;99.90;;;;;;2483240;23;20095;-71
2023/08/29 02:48:57;;;;;;;4.80;4.47;;;15.20;99.90;;;;;;2483442;23;19995;-71
2023/08/29 02:49:58;;;;;;;5.30;4.88;;;15.20;99.90;;;;;;2495634;23;19999;-71
2023/08/29 02:50:59;;;;;;;5.30;4.80;;;15.20;99.90;;;;;;2495381;23;20027;-71
2023/08/29 02:51:59;;;;;;;5.30;4.80;;;15.10;99.90;;;;;;2495414;23;20010;-71
2023/08/29 02:53:00;;;;;;;5.18;4.78;;;15.10;99.90;;;;;;2495543;23;20138;-71
2023/08/29 02:54:00;;;;;;;5.32;4.90;;;15.10;99.90;;;;;;2482072;23;20015;-71
2023/08/29 02:55:01;;;;;;;9.05;5.05;;;15.10;99.90;;;;;;2483177;23;20521;-71
2023/08/29 02:56:01;;;;;;;5.07;4.07;;;15.10;99.90;;;;;;2495421;23;19995;-71
2023/08/29 02:57:02;;;;;;;5.57;5.10;;;15.10;99.90;;;;;;2496136;23;19999;-71
2023/08/29 02:58:03;;;;;;;5.88;4.47;;;15.10;99.90;;;;;;2483091;23;20611;-71
2023/08/29 02:59:04;;;;;;;5.28;4.65;;;15.10;99.90;;;;;;2483095;23;20008;-71
2023/08/29 03:00:05;;;;;;;5.53;4.10;;;15.10;99.90;;;;;;2495716;23;20059;-71
2023/08/29 03:01:11;;;;;;;4.35;4.05;;;15.10;99.90;;;;;;2494735;23;20055;-71
2023/08/29 03:02:12;;;;;;;5.68;5.18;;;15.10;99.90;;;;;;2494980;23;19999;-71
2023/08/29 03:03:13;;;;;;;5.30;4.80;;;15.10;99.90;;;;;;2495649;23;19995;-71
2023/08/29 03:04:13;;;;;;;5.53;4.55;;;15.10;99.90;;;;;;2495024;23;20007;-71
2023/08/29 03:05:15;;;;;;;5.05;4.55;;;15.00;99.90;;;;;;2495874;23;20008;-71
2023/08/29 03:06:16;;;;;;;5.78;5.20;;;15.10;99.90;;;;;;2495185;23;20526;-71
2023/08/29 03:07:16;;;;;;;5.40;5.00;;;15.00;99.90;;;;;;2495971;23;20003;-71
2023/08/29 03:08:17;;;;;;;5.70;5.18;;;15.10;99.90;;;;;;2495584;23;20003;-71
2023/08/29 03:09:18;;;;;;;5.72;5.15;;;15.10;99.90;;;;;;2495781;23;20018;-71
2023/08/29 03:10:18;;;;;;;5.88;5.10;;;15.00;99.90;;;;;;2495299;23;20003;-72
2023/08/29 03:11:19;;;;;;;4.93;4.43;;;15.00;99.90;;;;;;2495445;23;20015;-72
2023/08/29 03:12:19;;;;;;;5.57;5.13;;;15.00;99.90;;;;;;2494668;23;20045;-72
2023/08/29 03:13:21;;;;;;;6.50;5.90;;;15.00;99.90;;;;;;2495619;23;20061;-72
2023/08/29 03:14:21;;;;;;;6.35;5.35;;;15.00;99.90;;;;;;2495574;23;20042;-72
2023/08/29 03:15:22;;;;;;;6.53;5.57;;;15.00;99.90;;;;;;2482899;23;20008;-72
2023/08/29 03:16:23;;;;;;;5.50;5.00;;;15.00;99.90;;;;;;2481843;23;20926;-71
2023/08/29 03:17:25;;;;;;;6.75;4.95;;;15.00;99.90;;;;;;2495767;23;20031;-71
2023/08/29 03:18:27;;;;;;;7.25;5.35;;;15.00;99.90;;;;;;2494382;23;20027;-71
2023/08/29 03:19:27;;;;;;;4.68;4.28;;;15.00;99.90;;;;;;2495939;23;20065;-71
2023/08/29 03:20:28;;;;;;;5.93;4.70;;;15.00;99.90;;;;;;2495515;23;20003;-71
2023/08/29 03:21:28;;;;;;;5.22;4.82;;;15.00;99.90;;;;;;2495383;23;20030;-71
2023/08/29 03:22:29;;;;;;;5.70;5.00;;;15.00;99.90;;;;;;2494906;23;20011;-71
2023/08/29 03:23:29;;;;;;;5.75;5.22;;;15.00;99.90;;;;;;2494868;23;20082;-71
2023/08/29 03:24:30;;;;;;;7.18;5.88;;;15.00;99.90;;;;;;2495883;23;20011;-71
2023/08/29 03:25:31;;;;;;;5.50;4.53;;;14.90;99.90;;;;;;2495058;23;20086;-71
2023/08/29 03:26:31;;;;;;;5.65;4.60;;;14.90;99.90;;;;;;2495974;23;20008;-71
2023/08/29 03:27:32;;;;;;;5.72;4.35;;;14.90;99.90;;;;;;2482518;23;20054;-71
2023/08/29 03:28:34;;;;;;;5.50;5.10;;;14.90;99.90;;;;;;2483187;23;20036;-71
2023/08/29 03:29:34;;;;;;;8.45;5.85;;;14.90;99.90;;;;;;2495092;23;20015;-72
2023/08/29 03:30:35;;;;;;;4.65;4.35;;;14.90;99.90;;;;;;2494372;23;20008;-72
2023/08/29 03:31:35;;;;;;;5.20;4.80;;;14.90;99.90;;;;;;2495448;23;20050;-71
2023/08/29 03:32:36;;;;;;;6.88;6.25;;;14.90;99.90;;;;;;2494489;23;20589;-71
2023/08/29 03:33:38;;;;;;;6.15;5.55;;;14.90;99.90;;;;;;2495261;23;20014;-71
2023/08/29 03:34:38;;;;;;;5.88;5.18;;;14.90;99.90;;;;;;2495566;23;20533;-71
2023/08/29 03:35:39;;;;;;;4.93;4.53;;;14.90;99.90;;;;;;2495374;23;20399;-71
2023/08/29 03:36:39;;;;;;;6.15;5.55;;;14.90;99.90;;;;;;2495803;23;20054;-71
2023/08/29 03:37:40;;;;;;;5.28;4.72;;;14.90;99.90;;;;;;2495371;23;19999;-71
2023/08/29 03:38:41;;;;;;;12.55;5.60;;;14.90;99.90;;;;;;2495360;23;20011;-71
2023/08/29 03:39:42;;;;;;;9.60;6.20;;;14.80;99.90;;;;;;2494861;23;20011;-71
2023/08/29 03:40:43;;;;;;;10.75;6.25;;;14.80;99.90;;;;;;2494565;23;20011;-71
2023/08/29 03:41:43;;;;;;;6.68;6.03;;;14.80;99.90;;;;;;2495866;23;20010;-71
2023/08/29 03:42:44;;;;;;;6.53;5.93;;;14.80;99.90;;;;;;2495217;23;20444;-71
2023/08/29 03:43:44;;;;;;;5.68;5.18;;;14.80;99.90;;;;;;2495042;23;20007;-71
2023/08/29 03:44:45;;;;;;;6.32;5.72;;;14.80;99.90;;;;;;2494865;23;20334;-71
2023/08/29 03:45:45;;;;;;;8.25;5.93;;;14.80;99.90;;;;;;2494957;23;20059;-71
2023/08/29 03:46:46;;;;;;;6.30;5.72;;;14.80;99.90;;;;;;2495640;23;20011;-71
2023/08/29 03:47:46;;;;;;;6.22;5.70;;;14.80;99.90;;;;;;2495548;23;20007;-71
2023/08/29 03:48:47;;;;;;;6.65;6.00;;;14.80;99.90;;;;;;2495594;23;20028;-71
2023/08/29 03:49:47;;;;;;;6.05;5.60;;;14.80;99.90;;;;;;2494974;23;20010;-71
2023/08/29 03:50:49;;;;;;;6.15;5.55;;;14.80;99.90;;;;;;2496015;23;20058;-71
2023/08/29 03:51:50;;;;;;;6.60;6.05;;;14.80;99.90;;;;;;2495268;23;20445;-71
2023/08/29 03:52:50;;;;;;;8.30;6.60;;;14.80;99.90;;;;;;2494961;23;20485;-71
2023/08/29 03:53:51;;;;;;;7.15;6.45;;;14.80;99.90;;;;;;2495337;23;20031;-71
2023/08/29 03:54:55;;;;;;;7.28;6.63;;;14.80;99.90;;;;;;2482771;23;20008;-71
2023/08/29 03:56:03;;;;;;;7.05;6.15;;;14.70;99.90;;;;;;2483785;23;20378;-71
2023/08/29 03:57:03;;;;;;;8.27;6.18;;;14.70;99.90;;;;;;2495738;23;19999;-71
2023/08/29 03:58:04;;;;;;;7.60;6.90;;;14.70;99.90;;;;;;2494927;23;20512;-71
2023/08/29 03:59:04;;;;;;;6.28;5.78;;;14.70;99.90;;;;;;2495237;23;20403;-71
2023/08/29 04:00:10;;;;;;;6.57;5.97;;;14.70;99.90;;;;;;2495330;23;20036;-71
2023/08/29 04:01:11;;;;;;;6.97;6.47;;;14.70;99.90;;;;;;2494921;23;20033;-71
2023/08/29 04:02:12;;;;;;;10.30;6.78;;;14.70;99.90;;;;;;2494919;23;20045;-71
2023/08/29 04:03:12;;;;;;;6.95;6.30;;;14.70;99.90;;;;;;2494929;23;20023;-72
2023/08/29 04:04:13;;;;;;;6.78;6.28;;;14.70;99.90;;;;;;2495279;23;19999;-72
2023/08/29 04:05:14;;;;;;;5.82;5.22;;;14.70;99.90;;;;;;2495765;23;20440;-72
2023/08/29 04:06:18;;;;;;;7.53;5.55;;;14.70;99.90;;;;;;2495104;23;20349;-72
2023/08/29 04:07:19;;;;;;;5.95;5.50;;;14.70;99.90;;;;;;2495703;23;20030;-72
2023/08/29 04:08:20;;;;;;;6.63;6.00;;;14.70;99.90;;;;;;2495996;23;20042;-72
2023/08/29 04:09:20;;;;;;;6.13;5.63;;;14.70;99.90;;;;;;2494147;23;20484;-72
2023/08/29 04:10:21;;;;;;;6.47;5.28;;;14.70;99.90;;;;;;2495667;23;20041;-72
2023/08/29 04:11:21;;;;;;;7.15;6.45;;;14.70;99.90;;;;;;2495169;23;20018;-72
2023/08/29 04:12:22;;;;;;;6.40;5.80;;;14.70;99.90;;;;;;2494289;23;20118;-72
2023/08/29 04:13:22;;;;;;;6.07;5.53;;;14.70;99.90;;;;;;2495101;23;20486;-72
2023/08/29 04:14:23;;;;;;;6.25;5.70;;;14.70;99.90;;;;;;2494235;23;20341;-72
2023/08/29 04:15:24;;;;;;;6.95;6.25;;;14.70;99.90;;;;;;2494141;23;20011;-72
2023/08/29 04:16:24;;;;;;;6.65;5.95;;;14.70;99.90;;;;;;2495329;23;20023;-70
2023/08/29 04:17:25;;;;;;;7.57;6.97;;;14.70;99.90;;;;;;2495023;23;20064;-71
2023/08/29 04:18:25;;;;;;;8.75;7.45;;;14.70;99.90;;;;;;2495103;23;20026;-71
2023/08/29 04:19:26;;;;;;;7.78;6.97;;;14.70;99.90;;;;;;2494712;23;20010;-71
2023/08/29 04:20:28;;;;;;;5.60;5.20;;;14.70;99.90;;;;;;2494749;23;20442;-71
2023/08/29 04:21:28;;;;;;;6.45;5.85;;;14.60;99.90;;;;;;2495099;23;20010;-71
2023/08/29 04:22:29;;;;;;;6.38;5.75;;;14.60;99.90;;;;;;2494820;23;20010;-71
2023/08/29 04:23:30;;;;;;;6.45;5.75;;;14.60;99.90;;;;;;2494856;23;20570;-71
2023/08/29 04:24:30;;;;;;;7.43;6.50;;;14.60;99.90;;;;;;2495665;23;20079;-71
2023/08/29 04:25:33;;;;;;;6.97;6.40;;;14.60;99.90;;;;;;2495124;23;20063;-71
2023/08/29 04:26:34;;;;;;;7.03;6.40;;;14.60;99.90;;;;;;2495634;23;20007;-71
2023/08/29 04:27:35;;;;;;;6.95;6.35;;;14.60;99.90;;;;;;2495395;23;20008;-71
2023/08/29 04:28:36;;;;;;;6.75;6.15;;;14.60;99.90;;;;;;2495785;23;20011;-71
2023/08/29 04:29:36;;;;;;;8.35;6.35;;;14.60;99.90;;;;;;2494459;23;20035;-71
2023/08/29 04:30:37;;;;;;;6.28;5.70;;;14.60;99.90;;;;;;2494485;23;20015;-71
2023/08/29 04:31:37;;;;;;;5.93;5.43;;;14.60;99.90;;;;;;2495359;23;20011;-71
2023/08/29 04:32:38;;;;;;;7.00;6.15;;;14.60;99.90;;;;;;2494224;23;20008;-71
2023/08/29 04:33:39;;;;;;;6.60;6.10;;;14.60;99.90;;;;;;2495819;23;20012;-71
2023/08/29 04:34:39;;;;;;;6.88;6.25;;;14.60;99.90;;;;;;2494352;23;20007;-71
2023/08/29 04:35:40;;;;;;;7.00;6.30;;;14.60;99.90;;;;;;2494892;23;19999;-71
2023/08/29 04:36:40;;;;;;;6.80;6.20;;;14.60;99.90;;;;;;2483249;23;20060;-71
2023/08/29 04:37:48;;;;;;;7.10;6.40;;;14.60;99.90;;;;;;2482808;23;20008;-72
2023/08/29 04:38:48;;;;;;;6.10;5.60;;;14.60;99.90;;;;;;2494620;23;20532;-71
2023/08/29 04:39:49;;;;;;;7.25;6.18;;;14.60;99.90;;;;;;2494226;23;20345;-71
2023/08/29 04:40:52;;;;;;;6.75;6.10;;;14.60;99.90;;;;;;2494303;23;20027;-71
2023/08/29 04:41:53;;;;;;;6.10;5.63;;;14.50;99.90;;;;;;2494764;23;20049;-71
2023/08/29 04:42:53;;;;;;;6.47;5.88;;;14.60;99.90;;;;;;2495122;23;20015;-72
2023/08/29 04:43:54;;;;;;;6.32;5.63;;;14.50;99.90;;;;;;2495136;23;20035;-71
2023/08/29 04:44:54;;;;;;;6.38;5.78;;;14.50;99.90;;;;;;2494764;23;20014;-71
2023/08/29 04:45:56;;;;;;;6.07;5.57;;;14.50;99.90;;;;;;2494652;23;20010;-71
2023/08/29 04:46:56;;;;;;;6.57;5.88;;;14.50;99.90;;;;;;2494912;23;20014;-71
2023/08/29 04:47:57;;;;;;;7.40;6.70;;;14.50;99.90;;;;;;2495010;23;20062;-71
2023/08/29 04:48:57;;;;;;;9.88;6.20;;;14.50;99.90;;;;;;2495482;23;20023;-71
2023/08/29 04:50:01;;;;;;;11.15;6.60;;;14.50;99.90;;;;;;2495375;23;20038;-71
2023/08/29 04:51:04;;;;;;;7.00;6.40;;;14.50;99.90;;;;;;2495324;23;20341;-72
2023/08/29 04:52:05;;;;;;;6.28;5.72;;;14.50;99.90;;;;;;2494587;23;20016;-71
2023/08/29 04:53:06;;;;;;;7.00;6.45;;;14.50;99.90;;;;;;2494461;23;20006;-71
2023/08/29 04:54:07;;;;;;;7.18;6.65;;;14.50;99.90;;;;;;2495520;23;20046;-71
2023/08/29 04:55:08;;;;;;;7.85;6.97;;;14.50;99.90;;;;;;2495009;23;20437;-71
2023/08/29 04:56:08;;;;;;;7.20;6.50;;;14.50;99.90;;;;;;2482670;23;20364;-71
2023/08/29 04:57:09;;;;;;;6.88;6.22;;;14.50;99.90;;;;;;2482725;23;20106;-71
2023/08/29 04:58:10;;;;;;;8.15;6.50;;;14.50;99.90;;;;;;2495280;23;19999;-72
2023/08/29 04:59:11;;;;;;;6.47;5.88;;;14.50;99.90;;;;;;2495129;23;20047;-71
2023/08/29 05:00:12;;;;;;;9.68;6.15;;;14.50;99.90;;;;;;2494870;23;20591;-71
2023/08/29 05:01:13;;;;;;;5.90;5.43;;;14.50;99.90;;;;;;2495254;23;19995;-71
2023/08/29 05:02:14;;;;;;;7.20;6.60;;;14.50;99.90;;;;;;2494586;23;20075;-71
2023/08/29 05:03:15;;;;;;;6.63;5.93;;;14.50;99.90;;;;;;2495626;23;20003;-72
2023/08/29 05:04:15;;;;;;;7.07;6.07;;;14.50;99.90;;;;;;2494725;23;20091;-71
2023/08/29 05:05:16;;;;;;;8.13;7.32;;;14.50;99.90;;;;;;2494684;23;20003;-71
2023/08/29 05:06:17;;;;;;;7.25;6.60;;;14.50;99.90;;;;;;2495131;23;20082;-71
2023/08/29 05:07:17;;;;;;;7.18;6.57;;;14.50;99.90;;;;;;2495255;23;20075;-72
2023/08/29 05:08:18;;;;;;;6.20;5.80;;;14.50;99.90;;;;;;2495189;23;20014;-71
2023/08/29 05:09:18;;;;;;;6.38;5.43;;;14.50;99.90;;;;;;2495133;23;20034;-71
2023/08/29 05:10:19;;;;;;;5.78;5.28;;;14.50;99.90;;;;;;2495587;23;20003;-71
2023/08/29 05:11:19;;;;;;;5.30;4.78;;;14.50;99.90;;;;;;2495607;23;20087;-71
2023/08/29 05:12:20;;;;;;;6.70;5.85;;;14.50;99.90;;;;;;2494437;23;20318;-71
2023/08/29 05:13:21;;;;;;;6.78;6.28;;;14.50;99.90;;;;;;2481372;23;20019;-71
2023/08/29 05:14:21;;;;;;;9.32;7.47;;;14.50;99.90;;;;;;2482356;23;20112;-72
2023/08/29 05:15:22;;;;;;;6.57;6.00;;;14.50;99.90;;;;;;2495434;23;20330;-72
2023/08/29 05:16:22;;;;;;;8.00;6.80;;;14.50;99.90;;;;;;2494459;23;20017;-72
2023/08/29 05:17:23;;;;;;;7.97;7.18;;;14.50;99.90;;;;;;2495223;23;19999;-71
2023/08/29 05:18:23;;;;;;;8.35;6.80;;;14.50;99.90;;;;;;2495456;23;20447;-71
2023/08/29 05:19:24;;;;;;;7.28;6.60;;;14.50;99.90;;;;;;2482710;23;20019;-71